sensor_id;sensor_type;location;lat;lon;timestamp;temperature;humidity
65582;DHT22;52231;40.090;18.348;2024-02-23T00:00:21;8.40;91.90
65582;DHT22;52231;40.090;18.348;2024-02-23T00:02:50;8.40;91.90
65582;DHT22;52231;40.090;18.348;2024-02-23T00:05:18;8.50;92.00
65582;DHT22;52231;40.090;18.348;2024-02-23T00:07:46;8.40;91.90
65582;DHT22;52231;40.090;18.348;2024-02-23T00:10:14;8.50;92.00
65582;DHT22;52231;40.090;18.348;2024-02-23T00:12:43;8.40;91.90
65582;DHT22;52231;40.090;18.348;2024-02-23T00:15:11;8.40;91.90
65582;DHT22;52231;40.090;18.348;2024-02-23T00:17:44;8.30;92.00
65582;DHT22;52231;40.090;18.348;2024-02-23T00:20:12;8.30;92.10
65582;DHT22;52231;40.090;18.348;2024-02-23T00:22:42;8.40;92.10
65582;DHT22;52231;40.090;18.348;2024-02-23T00:25:10;8.50;92.20
65582;DHT22;52231;40.090;18.348;2024-02-23T00:27:38;8.40;92.20
65582;DHT22;52231;40.090;18.348;2024-02-23T00:30:09;8.50;92.30
65582;DHT22;52231;40.090;18.348;2024-02-23T00:32:38;8.40;92.30
65582;DHT22;52231;40.090;18.348;2024-02-23T00:35:06;8.60;92.40
65582;DHT22;52231;40.090;18.348;2024-02-23T00:37:34;8.50;92.40
65582;DHT22;52231;40.090;18.348;2024-02-23T00:40:04;8.60;92.50
65582;DHT22;52231;40.090;18.348;2024-02-23T00:42:32;8.60;92.50
65582;DHT22;52231;40.090;18.348;2024-02-23T00:45:00;8.60;92.50
65582;DHT22;52231;40.090;18.348;2024-02-23T00:47:28;8.60;92.50
65582;DHT22;52231;40.090;18.348;2024-02-23T00:49:56;8.60;92.60
65582;DHT22;52231;40.090;18.348;2024-02-23T00:52:24;8.60;92.60
65582;DHT22;52231;40.090;18.348;2024-02-23T00:54:53;8.60;92.60
65582;DHT22;52231;40.090;18.348;2024-02-23T00:57:21;8.60;92.60
65582;DHT22;52231;40.090;18.348;2024-02-23T01:00:13;8.60;92.70
65582;DHT22;52231;40.090;18.348;2024-02-23T01:02:42;8.60;92.70
65582;DHT22;52231;40.090;18.348;2024-02-23T01:05:10;8.60;92.70
65582;DHT22;52231;40.090;18.348;2024-02-23T01:07:38;8.50;92.60
65582;DHT22;52231;40.090;18.348;2024-02-23T01:10:06;8.60;92.70
65582;DHT22;52231;40.090;18.348;2024-02-23T01:12:35;8.40;92.70
65582;DHT22;52231;40.090;18.348;2024-02-23T01:15:03;8.40;92.70
65582;DHT22;52231;40.090;18.348;2024-02-23T01:17:32;8.40;92.70
65582;DHT22;52231;40.090;18.348;2024-02-23T01:20:00;8.40;92.70
65582;DHT22;52231;40.090;18.348;2024-02-23T01:22:28;8.50;92.80
65582;DHT22;52231;40.090;18.348;2024-02-23T01:24:56;8.50;92.70
65582;DHT22;52231;40.090;18.348;2024-02-23T01:27:25;8.50;92.70
65582;DHT22;52231;40.090;18.348;2024-02-23T01:29:53;8.30;92.70
65582;DHT22;52231;40.090;18.348;2024-02-23T01:32:22;8.40;92.70
65582;DHT22;52231;40.090;18.348;2024-02-23T01:34:50;8.30;92.70
65582;DHT22;52231;40.090;18.348;2024-02-23T01:37:18;8.30;92.70
65582;DHT22;52231;40.090;18.348;2024-02-23T01:39:47;8.20;92.70
65582;DHT22;52231;40.090;18.348;2024-02-23T01:42:15;8.20;92.70
65582;DHT22;52231;40.090;18.348;2024-02-23T01:44:43;8.20;92.70
65582;DHT22;52231;40.090;18.348;2024-02-23T01:47:11;8.30;92.80
65582;DHT22;52231;40.090;18.348;2024-02-23T01:49:39;8.20;92.70
65582;DHT22;52231;40.090;18.348;2024-02-23T01:52:08;8.20;92.70
65582;DHT22;52231;40.090;18.348;2024-02-23T01:54:36;8.20;92.70
65582;DHT22;52231;40.090;18.348;2024-02-23T01:57:04;8.10;92.70
65582;DHT22;52231;40.090;18.348;2024-02-23T01:59:38;8.00;92.70
65582;DHT22;52231;40.090;18.348;2024-02-23T02:02:06;8.20;92.70
65582;DHT22;52231;40.090;18.348;2024-02-23T02:04:35;8.00;92.70
65582;DHT22;52231;40.090;18.348;2024-02-23T02:07:03;7.90;92.70
65582;DHT22;52231;40.090;18.348;2024-02-23T02:09:32;8.00;92.70
65582;DHT22;52231;40.090;18.348;2024-02-23T02:12:00;8.00;92.70
65582;DHT22;52231;40.090;18.348;2024-02-23T02:14:28;8.00;92.70
65582;DHT22;52231;40.090;18.348;2024-02-23T02:16:59;7.80;92.70
65582;DHT22;52231;40.090;18.348;2024-02-23T02:19:27;7.90;92.70
65582;DHT22;52231;40.090;18.348;2024-02-23T02:21:56;8.00;92.80
65582;DHT22;52231;40.090;18.348;2024-02-23T02:24:24;7.90;92.80
65582;DHT22;52231;40.090;18.348;2024-02-23T02:26:52;8.00;92.80
65582;DHT22;52231;40.090;18.348;2024-02-23T02:29:20;8.00;92.80
65582;DHT22;52231;40.090;18.348;2024-02-23T02:31:48;8.00;92.80
65582;DHT22;52231;40.090;18.348;2024-02-23T02:34:17;8.00;92.90
65582;DHT22;52231;40.090;18.348;2024-02-23T02:36:45;8.00;92.90
65582;DHT22;52231;40.090;18.348;2024-02-23T02:39:13;7.90;92.80
65582;DHT22;52231;40.090;18.348;2024-02-23T02:41:41;8.00;92.90
65582;DHT22;52231;40.090;18.348;2024-02-23T02:44:09;8.00;92.90
65582;DHT22;52231;40.090;18.348;2024-02-23T02:46:37;8.10;93.10
65582;DHT22;52231;40.090;18.348;2024-02-23T02:49:05;8.20;93.10
65582;DHT22;52231;40.090;18.348;2024-02-23T02:51:33;8.10;93.00
65582;DHT22;52231;40.090;18.348;2024-02-23T02:54:01;8.10;93.00
65582;DHT22;52231;40.090;18.348;2024-02-23T02:56:29;8.30;93.20
65582;DHT22;52231;40.090;18.348;2024-02-23T02:58:57;8.30;93.10
65582;DHT22;52231;40.090;18.348;2024-02-23T03:01:25;8.20;93.10
65582;DHT22;52231;40.090;18.348;2024-02-23T03:03:53;8.40;93.40
65582;DHT22;52231;40.090;18.348;2024-02-23T03:06:21;8.50;93.30
65582;DHT22;52231;40.090;18.348;2024-02-23T03:08:49;8.60;93.40
65582;DHT22;52231;40.090;18.348;2024-02-23T03:11:17;8.50;93.40
65582;DHT22;52231;40.090;18.348;2024-02-23T03:13:45;8.60;93.40
65582;DHT22;52231;40.090;18.348;2024-02-23T03:16:17;8.70;93.50
65582;DHT22;52231;40.090;18.348;2024-02-23T03:18:45;8.70;93.50
65582;DHT22;52231;40.090;18.348;2024-02-23T03:21:13;8.80;93.50
65582;DHT22;52231;40.090;18.348;2024-02-23T03:23:43;8.80;93.50
65582;DHT22;52231;40.090;18.348;2024-02-23T03:26:12;8.70;93.50
65582;DHT22;52231;40.090;18.348;2024-02-23T03:28:41;8.70;93.60
65582;DHT22;52231;40.090;18.348;2024-02-23T03:31:10;8.80;93.50
65582;DHT22;52231;40.090;18.348;2024-02-23T03:33:38;8.80;93.60
65582;DHT22;52231;40.090;18.348;2024-02-23T03:36:06;8.80;93.60
65582;DHT22;52231;40.090;18.348;2024-02-23T03:38:34;8.80;93.60
65582;DHT22;52231;40.090;18.348;2024-02-23T03:41:02;8.80;93.60
65582;DHT22;52231;40.090;18.348;2024-02-23T03:43:31;8.80;93.60
65582;DHT22;52231;40.090;18.348;2024-02-23T03:46:00;8.80;93.60
65582;DHT22;52231;40.090;18.348;2024-02-23T03:48:28;8.90;93.60
65582;DHT22;52231;40.090;18.348;2024-02-23T03:50:58;8.80;93.60
65582;DHT22;52231;40.090;18.348;2024-02-23T03:53:26;8.80;93.50
65582;DHT22;52231;40.090;18.348;2024-02-23T03:55:54;8.90;93.60
65582;DHT22;52231;40.090;18.348;2024-02-23T03:58:22;8.70;93.60
65582;DHT22;52231;40.090;18.348;2024-02-23T04:00:51;8.80;93.60
65582;DHT22;52231;40.090;18.348;2024-02-23T04:03:18;8.80;93.60
65582;DHT22;52231;40.090;18.348;2024-02-23T04:05:46;8.70;93.60
65582;DHT22;52231;40.090;18.348;2024-02-23T04:08:15;8.80;93.70
65582;DHT22;52231;40.090;18.348;2024-02-23T04:10:43;8.70;93.60
65582;DHT22;52231;40.090;18.348;2024-02-23T04:13:11;8.80;93.70
65582;DHT22;52231;40.090;18.348;2024-02-23T04:15:41;8.70;93.70
65582;DHT22;52231;40.090;18.348;2024-02-23T04:18:09;8.70;93.70
65582;DHT22;52231;40.090;18.348;2024-02-23T04:20:37;8.80;93.70
65582;DHT22;52231;40.090;18.348;2024-02-23T04:23:05;8.90;93.70
65582;DHT22;52231;40.090;18.348;2024-02-23T04:25:33;8.80;93.60
65582;DHT22;52231;40.090;18.348;2024-02-23T04:28:01;8.80;93.70
65582;DHT22;52231;40.090;18.348;2024-02-23T04:30:29;8.90;93.70
65582;DHT22;52231;40.090;18.348;2024-02-23T04:32:57;9.00;93.70
65582;DHT22;52231;40.090;18.348;2024-02-23T04:35:25;9.10;93.70
65582;DHT22;52231;40.090;18.348;2024-02-23T04:37:54;9.10;93.70
65582;DHT22;52231;40.090;18.348;2024-02-23T04:40:22;9.10;93.70
65582;DHT22;52231;40.090;18.348;2024-02-23T04:42:50;9.00;93.60
65582;DHT22;52231;40.090;18.348;2024-02-23T04:45:18;9.00;93.60
65582;DHT22;52231;40.090;18.348;2024-02-23T04:47:46;9.10;93.70
65582;DHT22;52231;40.090;18.348;2024-02-23T04:50:16;9.10;93.70
65582;DHT22;52231;40.090;18.348;2024-02-23T04:52:44;9.20;93.70
65582;DHT22;52231;40.090;18.348;2024-02-23T04:55:12;9.20;93.70
65582;DHT22;52231;40.090;18.348;2024-02-23T04:57:40;9.20;93.70
65582;DHT22;52231;40.090;18.348;2024-02-23T05:00:09;9.30;93.80
65582;DHT22;52231;40.090;18.348;2024-02-23T05:02:37;9.30;93.80
65582;DHT22;52231;40.090;18.348;2024-02-23T05:05:05;9.30;93.70
65582;DHT22;52231;40.090;18.348;2024-02-23T05:07:34;9.30;93.70
65582;DHT22;52231;40.090;18.348;2024-02-23T05:10:02;9.40;93.70
65582;DHT22;52231;40.090;18.348;2024-02-23T05:12:31;9.40;93.70
65582;DHT22;52231;40.090;18.348;2024-02-23T05:14:59;9.50;93.70
65582;DHT22;52231;40.090;18.348;2024-02-23T05:17:27;9.40;93.70
65582;DHT22;52231;40.090;18.348;2024-02-23T05:19:56;9.40;93.70
65582;DHT22;52231;40.090;18.348;2024-02-23T05:22:23;9.30;93.60
65582;DHT22;52231;40.090;18.348;2024-02-23T05:24:51;9.30;93.60
65582;DHT22;52231;40.090;18.348;2024-02-23T05:27:20;9.40;93.70
65582;DHT22;52231;40.090;18.348;2024-02-23T05:29:48;9.40;93.60
65582;DHT22;52231;40.090;18.348;2024-02-23T05:32:16;9.40;93.70
65582;DHT22;52231;40.090;18.348;2024-02-23T05:34:45;9.30;93.70
65582;DHT22;52231;40.090;18.348;2024-02-23T05:37:13;9.30;93.70
65582;DHT22;52231;40.090;18.348;2024-02-23T05:39:41;9.30;93.80
65582;DHT22;52231;40.090;18.348;2024-02-23T05:42:09;9.40;93.70
65582;DHT22;52231;40.090;18.348;2024-02-23T05:44:38;9.40;93.60
65582;DHT22;52231;40.090;18.348;2024-02-23T05:47:07;9.50;93.70
65582;DHT22;52231;40.090;18.348;2024-02-23T05:49:35;9.50;93.60
65582;DHT22;52231;40.090;18.348;2024-02-23T05:52:03;9.50;93.60
65582;DHT22;52231;40.090;18.348;2024-02-23T05:54:31;9.60;93.60
65582;DHT22;52231;40.090;18.348;2024-02-23T05:56:59;9.70;93.60
65582;DHT22;52231;40.090;18.348;2024-02-23T05:59:28;9.70;93.60
65582;DHT22;52231;40.090;18.348;2024-02-23T06:01:56;9.70;93.60
65582;DHT22;52231;40.090;18.348;2024-02-23T06:04:25;9.70;93.60
65582;DHT22;52231;40.090;18.348;2024-02-23T06:06:53;9.80;93.50
65582;DHT22;52231;40.090;18.348;2024-02-23T06:09:21;10.00;93.60
65582;DHT22;52231;40.090;18.348;2024-02-23T06:11:49;10.10;93.50
65582;DHT22;52231;40.090;18.348;2024-02-23T06:14:17;10.30;93.50
65582;DHT22;52231;40.090;18.348;2024-02-23T06:16:45;10.30;93.40
65582;DHT22;52231;40.090;18.348;2024-02-23T06:19:13;10.40;93.40
65582;DHT22;52231;40.090;18.348;2024-02-23T06:21:41;10.50;93.30
65582;DHT22;52231;40.090;18.348;2024-02-23T06:24:09;10.70;93.40
65582;DHT22;52231;40.090;18.348;2024-02-23T06:26:37;10.80;93.30
65582;DHT22;52231;40.090;18.348;2024-02-23T06:29:05;10.90;93.30
65582;DHT22;52231;40.090;18.348;2024-02-23T06:31:33;11.30;93.30
65582;DHT22;52231;40.090;18.348;2024-02-23T06:34:02;11.40;93.30
65582;DHT22;52231;40.090;18.348;2024-02-23T06:36:30;11.60;93.20
65582;DHT22;52231;40.090;18.348;2024-02-23T06:38:58;11.90;93.20
65582;DHT22;52231;40.090;18.348;2024-02-23T06:41:26;12.00;93.10
65582;DHT22;52231;40.090;18.348;2024-02-23T06:43:54;12.30;93.10
65582;DHT22;52231;40.090;18.348;2024-02-23T06:46:23;12.60;93.00
65582;DHT22;52231;40.090;18.348;2024-02-23T06:48:51;12.70;92.80
65582;DHT22;52231;40.090;18.348;2024-02-23T06:51:19;12.80;92.90
65582;DHT22;52231;40.090;18.348;2024-02-23T06:53:48;13.10;92.60
65582;DHT22;52231;40.090;18.348;2024-02-23T06:56:16;13.10;92.30
65582;DHT22;52231;40.090;18.348;2024-02-23T06:58:44;13.20;91.80
65582;DHT22;52231;40.090;18.348;2024-02-23T07:01:13;13.40;91.20
65582;DHT22;52231;40.090;18.348;2024-02-23T07:03:41;13.80;90.30
65582;DHT22;52231;40.090;18.348;2024-02-23T07:06:11;13.80;89.00
65582;DHT22;52231;40.090;18.348;2024-02-23T07:08:39;13.80;88.40
65582;DHT22;52231;40.090;18.348;2024-02-23T07:11:07;13.80;87.30
65582;DHT22;52231;40.090;18.348;2024-02-23T07:13:35;13.80;87.20
65582;DHT22;52231;40.090;18.348;2024-02-23T07:16:04;13.80;86.70
65582;DHT22;52231;40.090;18.348;2024-02-23T07:18:32;13.80;86.00
65582;DHT22;52231;40.090;18.348;2024-02-23T07:21:01;13.80;85.20
65582;DHT22;52231;40.090;18.348;2024-02-23T07:23:29;13.90;84.80
65582;DHT22;52231;40.090;18.348;2024-02-23T07:25:57;14.00;84.30
65582;DHT22;52231;40.090;18.348;2024-02-23T07:28:25;14.10;83.80
65582;DHT22;52231;40.090;18.348;2024-02-23T07:30:53;14.10;83.20
65582;DHT22;52231;40.090;18.348;2024-02-23T07:33:21;14.20;82.70
65582;DHT22;52231;40.090;18.348;2024-02-23T07:35:49;14.30;82.50
65582;DHT22;52231;40.090;18.348;2024-02-23T07:38:17;14.40;82.10
65582;DHT22;52231;40.090;18.348;2024-02-23T07:40:46;14.30;82.00
65582;DHT22;52231;40.090;18.348;2024-02-23T07:43:14;14.30;81.90
65582;DHT22;52231;40.090;18.348;2024-02-23T07:45:42;14.30;81.50
65582;DHT22;52231;40.090;18.348;2024-02-23T07:48:10;14.30;81.20
65582;DHT22;52231;40.090;18.348;2024-02-23T07:50:38;14.30;81.10
65582;DHT22;52231;40.090;18.348;2024-02-23T07:53:06;14.50;81.10
65582;DHT22;52231;40.090;18.348;2024-02-23T07:55:34;14.50;80.90
65582;DHT22;52231;40.090;18.348;2024-02-23T07:58:03;14.50;80.50
65582;DHT22;52231;40.090;18.348;2024-02-23T08:00:31;14.30;80.30
65582;DHT22;52231;40.090;18.348;2024-02-23T08:02:59;14.30;80.20
65582;DHT22;52231;40.090;18.348;2024-02-23T08:05:28;14.40;80.10
65582;DHT22;52231;40.090;18.348;2024-02-23T08:07:56;14.50;80.20
65582;DHT22;52231;40.090;18.348;2024-02-23T08:10:24;14.60;79.90
65582;DHT22;52231;40.090;18.348;2024-02-23T08:12:53;14.60;79.70
65582;DHT22;52231;40.090;18.348;2024-02-23T08:15:27;14.60;79.50
65582;DHT22;52231;40.090;18.348;2024-02-23T08:17:56;14.60;79.10
65582;DHT22;52231;40.090;18.348;2024-02-23T08:20:24;14.60;79.00
65582;DHT22;52231;40.090;18.348;2024-02-23T08:22:52;14.50;79.00
65582;DHT22;52231;40.090;18.348;2024-02-23T08:25:20;14.40;78.90
65582;DHT22;52231;40.090;18.348;2024-02-23T08:27:48;14.40;79.00
65582;DHT22;52231;40.090;18.348;2024-02-23T08:30:16;14.60;79.20
65582;DHT22;52231;40.090;18.348;2024-02-23T08:32:44;14.80;79.00
65582;DHT22;52231;40.090;18.348;2024-02-23T08:35:13;15.00;78.30
65582;DHT22;52231;40.090;18.348;2024-02-23T08:37:41;15.30;77.20
65582;DHT22;52231;40.090;18.348;2024-02-23T08:40:10;15.60;76.40
65582;DHT22;52231;40.090;18.348;2024-02-23T08:42:38;16.00;75.80
65582;DHT22;52231;40.090;18.348;2024-02-23T08:45:07;16.20;74.50
65582;DHT22;52231;40.090;18.348;2024-02-23T08:47:35;16.50;73.60
65582;DHT22;52231;40.090;18.348;2024-02-23T08:50:04;17.00;71.40
65582;DHT22;52231;40.090;18.348;2024-02-23T08:52:32;17.20;70.40
65582;DHT22;52231;40.090;18.348;2024-02-23T08:55:01;17.30;70.20
65582;DHT22;52231;40.090;18.348;2024-02-23T08:57:29;17.60;70.60
65582;DHT22;52231;40.090;18.348;2024-02-23T08:59:57;17.90;68.00
65582;DHT22;52231;40.090;18.348;2024-02-23T09:02:26;17.50;66.70
65582;DHT22;52231;40.090;18.348;2024-02-23T09:04:54;17.70;67.50
65582;DHT22;52231;40.090;18.348;2024-02-23T09:07:22;17.50;67.00
65582;DHT22;52231;40.090;18.348;2024-02-23T09:09:50;17.50;67.70
65582;DHT22;52231;40.090;18.348;2024-02-23T09:12:18;17.40;67.90
65582;DHT22;52231;40.090;18.348;2024-02-23T09:14:46;17.30;66.50
65582;DHT22;52231;40.090;18.348;2024-02-23T09:17:15;17.40;66.70
65582;DHT22;52231;40.090;18.348;2024-02-23T09:19:43;17.20;66.70
65582;DHT22;52231;40.090;18.348;2024-02-23T09:22:11;17.00;68.30
65582;DHT22;52231;40.090;18.348;2024-02-23T09:24:40;17.20;68.50
65582;DHT22;52231;40.090;18.348;2024-02-23T09:27:08;17.40;67.30
65582;DHT22;52231;40.090;18.348;2024-02-23T09:29:36;17.80;66.80
65582;DHT22;52231;40.090;18.348;2024-02-23T09:32:05;17.70;65.90
65582;DHT22;52231;40.090;18.348;2024-02-23T09:34:33;17.80;66.20
65582;DHT22;52231;40.090;18.348;2024-02-23T09:37:01;18.10;64.00
65582;DHT22;52231;40.090;18.348;2024-02-23T09:39:29;18.00;64.30
65582;DHT22;52231;40.090;18.348;2024-02-23T09:41:58;18.00;64.00
65582;DHT22;52231;40.090;18.348;2024-02-23T09:44:33;17.80;64.70
65582;DHT22;52231;40.090;18.348;2024-02-23T09:47:03;17.90;64.70
65582;DHT22;52231;40.090;18.348;2024-02-23T09:49:39;18.10;63.90
65582;DHT22;52231;40.090;18.348;2024-02-23T09:52:08;18.10;63.00
65582;DHT22;52231;40.090;18.348;2024-02-23T09:54:39;18.20;63.50
65582;DHT22;52231;40.090;18.348;2024-02-23T09:57:08;18.00;63.90
65582;DHT22;52231;40.090;18.348;2024-02-23T09:59:37;18.00;64.00
65582;DHT22;52231;40.090;18.348;2024-02-23T10:02:08;18.10;64.30
65582;DHT22;52231;40.090;18.348;2024-02-23T10:04:43;18.30;63.70
65582;DHT22;52231;40.090;18.348;2024-02-23T10:07:15;18.50;62.30
65582;DHT22;52231;40.090;18.348;2024-02-23T10:09:44;18.40;63.00
65582;DHT22;52231;40.090;18.348;2024-02-23T10:12:13;18.30;62.80
65582;DHT22;52231;40.090;18.348;2024-02-23T10:14:41;18.40;62.50
65582;DHT22;52231;40.090;18.348;2024-02-23T10:17:10;18.40;61.50
65582;DHT22;52231;40.090;18.348;2024-02-23T10:19:38;18.20;62.40
65582;DHT22;52231;40.090;18.348;2024-02-23T10:22:06;17.80;63.80
65582;DHT22;52231;40.090;18.348;2024-02-23T10:24:36;17.80;64.30
65582;DHT22;52231;40.090;18.348;2024-02-23T10:27:04;18.10;63.30
65582;DHT22;52231;40.090;18.348;2024-02-23T10:29:32;18.10;63.60
65582;DHT22;52231;40.090;18.348;2024-02-23T10:32:01;18.00;63.00
65582;DHT22;52231;40.090;18.348;2024-02-23T10:34:31;17.90;63.40
65582;DHT22;52231;40.090;18.348;2024-02-23T10:36:59;17.80;63.70
65582;DHT22;52231;40.090;18.348;2024-02-23T10:39:29;17.80;64.70
65582;DHT22;52231;40.090;18.348;2024-02-23T10:42:02;17.90;64.40
65582;DHT22;52231;40.090;18.348;2024-02-23T10:44:31;17.90;63.40
65582;DHT22;52231;40.090;18.348;2024-02-23T10:47:00;18.30;63.30
65582;DHT22;52231;40.090;18.348;2024-02-23T10:49:29;18.20;63.20
65582;DHT22;52231;40.090;18.348;2024-02-23T10:51:59;18.00;64.40
65582;DHT22;52231;40.090;18.348;2024-02-23T10:54:31;18.30;64.70
65582;DHT22;52231;40.090;18.348;2024-02-23T10:57:03;18.50;61.50
65582;DHT22;52231;40.090;18.348;2024-02-23T10:59:31;18.40;63.10
65582;DHT22;52231;40.090;18.348;2024-02-23T11:01:59;18.60;62.40
65582;DHT22;52231;40.090;18.348;2024-02-23T11:04:32;18.70;62.10
65582;DHT22;52231;40.090;18.348;2024-02-23T11:07:13;18.90;61.80
65582;DHT22;52231;40.090;18.348;2024-02-23T11:10:00;18.70;62.80
65582;DHT22;52231;40.090;18.348;2024-02-23T11:12:31;18.70;62.80
65582;DHT22;52231;40.090;18.348;2024-02-23T11:15:30;18.80;61.90
65582;DHT22;52231;40.090;18.348;2024-02-23T11:18:01;19.10;60.50
65582;DHT22;52231;40.090;18.348;2024-02-23T11:20:38;19.20;60.10
65582;DHT22;52231;40.090;18.348;2024-02-23T11:23:13;19.40;58.30
65582;DHT22;52231;40.090;18.348;2024-02-23T11:25:43;19.30;59.10
65582;DHT22;52231;40.090;18.348;2024-02-23T11:28:22;19.00;60.60
65582;DHT22;52231;40.090;18.348;2024-02-23T11:30:51;19.00;60.40
65582;DHT22;52231;40.090;18.348;2024-02-23T11:33:26;19.00;59.60
65582;DHT22;52231;40.090;18.348;2024-02-23T11:36:08;19.20;60.40
65582;DHT22;52231;40.090;18.348;2024-02-23T11:38:38;19.20;61.10
65582;DHT22;52231;40.090;18.348;2024-02-23T11:41:07;19.50;61.00
65582;DHT22;52231;40.090;18.348;2024-02-23T11:43:37;19.60;60.60
65582;DHT22;52231;40.090;18.348;2024-02-23T11:46:05;19.70;59.70
65582;DHT22;52231;40.090;18.348;2024-02-23T11:48:35;19.90;59.70
65582;DHT22;52231;40.090;18.348;2024-02-23T11:51:03;19.70;59.60
65582;DHT22;52231;40.090;18.348;2024-02-23T11:53:31;19.40;58.90
65582;DHT22;52231;40.090;18.348;2024-02-23T11:55:59;19.30;59.50
65582;DHT22;52231;40.090;18.348;2024-02-23T11:58:27;19.00;60.60
65582;DHT22;52231;40.090;18.348;2024-02-23T12:00:56;19.00;61.20
65582;DHT22;52231;40.090;18.348;2024-02-23T12:03:30;19.20;61.80
65582;DHT22;52231;40.090;18.348;2024-02-23T12:06:02;19.50;60.90
65582;DHT22;52231;40.090;18.348;2024-02-23T12:08:33;19.60;60.70
65582;DHT22;52231;40.090;18.348;2024-02-23T12:11:08;19.80;59.50
65582;DHT22;52231;40.090;18.348;2024-02-23T12:13:56;19.80;58.70
65582;DHT22;52231;40.090;18.348;2024-02-23T12:16:26;19.50;59.50
65582;DHT22;52231;40.090;18.348;2024-02-23T12:18:55;19.30;60.30
65582;DHT22;52231;40.090;18.348;2024-02-23T12:21:23;19.00;61.60
65582;DHT22;52231;40.090;18.348;2024-02-23T12:23:53;19.10;61.90
65582;DHT22;52231;40.090;18.348;2024-02-23T12:26:21;19.40;61.00
65582;DHT22;52231;40.090;18.348;2024-02-23T12:28:49;19.40;60.80
65582;DHT22;52231;40.090;18.348;2024-02-23T12:31:23;19.00;61.90
65582;DHT22;52231;40.090;18.348;2024-02-23T12:33:53;19.10;62.40
65582;DHT22;52231;40.090;18.348;2024-02-23T12:36:22;19.20;61.70
65582;DHT22;52231;40.090;18.348;2024-02-23T12:38:51;19.00;62.30
65582;DHT22;52231;40.090;18.348;2024-02-23T12:41:19;18.90;61.90
65582;DHT22;52231;40.090;18.348;2024-02-23T12:43:47;18.80;61.70
65582;DHT22;52231;40.090;18.348;2024-02-23T12:46:15;18.70;63.00
65582;DHT22;52231;40.090;18.348;2024-02-23T12:48:43;18.80;62.70
65582;DHT22;52231;40.090;18.348;2024-02-23T12:51:14;18.80;63.10
65582;DHT22;52231;40.090;18.348;2024-02-23T12:53:43;18.70;63.40
65582;DHT22;52231;40.090;18.348;2024-02-23T12:56:13;18.60;64.00
65582;DHT22;52231;40.090;18.348;2024-02-23T12:58:45;18.40;64.80
65582;DHT22;52231;40.090;18.348;2024-02-23T13:01:14;18.30;65.60
65582;DHT22;52231;40.090;18.348;2024-02-23T13:03:42;18.40;65.70
65582;DHT22;52231;40.090;18.348;2024-02-23T13:06:10;18.40;64.90
65582;DHT22;52231;40.090;18.348;2024-02-23T13:08:39;18.10;65.80
65582;DHT22;52231;40.090;18.348;2024-02-23T13:11:10;17.90;66.80
65582;DHT22;52231;40.090;18.348;2024-02-23T13:13:38;17.80;66.50
65582;DHT22;52231;40.090;18.348;2024-02-23T13:16:08;17.70;67.00
65582;DHT22;52231;40.090;18.348;2024-02-23T13:18:36;17.50;67.50
65582;DHT22;52231;40.090;18.348;2024-02-23T13:21:04;17.30;67.90
65582;DHT22;52231;40.090;18.348;2024-02-23T13:23:32;17.40;68.20
65582;DHT22;52231;40.090;18.348;2024-02-23T13:26:01;17.50;68.00
65582;DHT22;52231;40.090;18.348;2024-02-23T13:28:30;17.50;67.70
65582;DHT22;52231;40.090;18.348;2024-02-23T13:30:59;17.30;67.50
65582;DHT22;52231;40.090;18.348;2024-02-23T13:33:27;17.10;68.60
65582;DHT22;52231;40.090;18.348;2024-02-23T13:35:55;17.00;69.20
65582;DHT22;52231;40.090;18.348;2024-02-23T13:38:24;16.80;70.30
65582;DHT22;52231;40.090;18.348;2024-02-23T13:40:52;16.70;70.60
65582;DHT22;52231;40.090;18.348;2024-02-23T13:43:22;16.40;71.50
65582;DHT22;52231;40.090;18.348;2024-02-23T13:45:52;16.40;71.70
65582;DHT22;52231;40.090;18.348;2024-02-23T13:48:20;16.40;71.50
65582;DHT22;52231;40.090;18.348;2024-02-23T13:50:49;16.30;71.70
65582;DHT22;52231;40.090;18.348;2024-02-23T13:53:17;16.20;72.50
65582;DHT22;52231;40.090;18.348;2024-02-23T13:55:46;16.20;72.90
65582;DHT22;52231;40.090;18.348;2024-02-23T13:58:14;16.30;72.50
65582;DHT22;52231;40.090;18.348;2024-02-23T14:00:42;16.50;72.20
65582;DHT22;52231;40.090;18.348;2024-02-23T14:03:17;16.50;71.90
65582;DHT22;52231;40.090;18.348;2024-02-23T14:05:46;16.50;72.10
65582;DHT22;52231;40.090;18.348;2024-02-23T14:08:15;16.40;72.10
65582;DHT22;52231;40.090;18.348;2024-02-23T14:10:43;16.40;72.50
65582;DHT22;52231;40.090;18.348;2024-02-23T14:13:14;16.40;72.50
65582;DHT22;52231;40.090;18.348;2024-02-23T14:15:43;16.40;72.70
65582;DHT22;52231;40.090;18.348;2024-02-23T14:18:11;16.30;72.60
65582;DHT22;52231;40.090;18.348;2024-02-23T14:20:39;16.30;72.70
65582;DHT22;52231;40.090;18.348;2024-02-23T14:23:08;16.30;72.50
65582;DHT22;52231;40.090;18.348;2024-02-23T14:25:36;16.20;72.90
65582;DHT22;52231;40.090;18.348;2024-02-23T14:28:04;16.20;73.30
65582;DHT22;52231;40.090;18.348;2024-02-23T14:30:32;16.10;73.70
65582;DHT22;52231;40.090;18.348;2024-02-23T14:33:01;16.00;73.20
65582;DHT22;52231;40.090;18.348;2024-02-23T14:35:29;16.00;73.40
65582;DHT22;52231;40.090;18.348;2024-02-23T14:37:57;16.00;73.40
65582;DHT22;52231;40.090;18.348;2024-02-23T14:40:25;15.90;73.70
65582;DHT22;52231;40.090;18.348;2024-02-23T14:42:54;15.90;74.30
65582;DHT22;52231;40.090;18.348;2024-02-23T14:45:22;15.80;74.50
65582;DHT22;52231;40.090;18.348;2024-02-23T14:47:51;15.80;74.80
65582;DHT22;52231;40.090;18.348;2024-02-23T14:50:19;15.80;75.10
65582;DHT22;52231;40.090;18.348;2024-02-23T14:52:47;15.80;75.00
65582;DHT22;52231;40.090;18.348;2024-02-23T14:55:18;15.80;74.90
65582;DHT22;52231;40.090;18.348;2024-02-23T14:57:47;15.80;75.20
65582;DHT22;52231;40.090;18.348;2024-02-23T15:00:15;15.80;75.40
65582;DHT22;52231;40.090;18.348;2024-02-23T15:02:43;15.80;75.20
65582;DHT22;52231;40.090;18.348;2024-02-23T15:05:12;15.80;75.20
65582;DHT22;52231;40.090;18.348;2024-02-23T15:07:41;15.70;75.00
65582;DHT22;52231;40.090;18.348;2024-02-23T15:10:10;15.70;74.60
65582;DHT22;52231;40.090;18.348;2024-02-23T15:12:38;15.80;74.90
65582;DHT22;52231;40.090;18.348;2024-02-23T15:15:07;15.80;74.70
65582;DHT22;52231;40.090;18.348;2024-02-23T15:17:36;15.80;74.60
65582;DHT22;52231;40.090;18.348;2024-02-23T15:20:04;15.80;74.90
65582;DHT22;52231;40.090;18.348;2024-02-23T15:22:33;15.80;74.50
65582;DHT22;52231;40.090;18.348;2024-02-23T15:25:01;15.80;74.40
65582;DHT22;52231;40.090;18.348;2024-02-23T15:27:31;15.80;75.00
65582;DHT22;52231;40.090;18.348;2024-02-23T15:30:00;15.70;75.00
65582;DHT22;52231;40.090;18.348;2024-02-23T15:32:28;15.70;75.20